Terminal Aerodrome Forecast
Issued by NWS Blacksburg, VA

Current Version | Previous Version | Text Only | Print | Product List | Glossary Off
Versions: 1 2 3 4 5 6 7 8 9 10 11 12 13 14 15 16 17 18 19 20 21 22 23 24 25 26 27 28 29 30 31 32 33 34 35 36 37 38

000
FTUS41 KRNK 281508 AAB
TAFBLF
TAF AMD
KBLF 281508Z 2815/2912 28012G22KT P6SM FEW020 BKN040
     FM281600 28015G25KT P6SM SCT025 BKN050
     FM282200 30008KT P6SM BKN040
     FM290400 30004KT P6SM BKN015=

USA.gov is the U.S. government's official web portal to all federal, state and local government web resources and services.